Ararat, Virginia
Current Conditions -  °F | °C
As of 12:35 AM on Friday 28 Nov 2014 (Local Time) from KMWK Reporting Station
Overcast Overcast  
Wind Chill: 30°   Ceiling: 5000
Heat Index: 34°   Visibility: 10mi
Dew Point: 19°   Wind: 5mph
Humidity: 55%   Direction: 310°NW
Pressure: 30.28"   Gusts: NA
Location:  36.6°N, 80.51°W
Report Text: KMWK 280535Z AUTO 31004KT 10SM OVC050 01/M07 A3028 RMK AO2 T00111070
Loading
Personal Weather Stations






























Interactive Weather Map New forecast layout! Learn more

10-Day Weather Forecast

Advertisements
Track Severe Weather on mobile